Latest Weather Observations for Taree Airport

IDN60801

Issued at 5:33 am EST Thursday 25 August 2016 (issued every 30 minutes, with the page automatically refreshed every 10 minutes)

About weather observations | Map of weather stations | Latest weather observations for NSW | Other Formats
Station Details ID: 060141 Name: TAREE AIRPORT AWS Lat: -31.89 Lon: 152.51 Height: 8.0 m
Data from the previous 72 hours. | See also: Recent months at Taree Airport
Date/Time
EST
Temp
°C
App
Temp
°C
Dew
Point
°C
Rel
Hum
%
Delta-T
°C
Wind Press
QNH
hPa
Press
MSL
hPa
Rain since
9am
mm
Dir  Spd
km/h
Gust
km/h
Spd
kts
Gust
kts
25/05:30am 10.9 7.8 7.2 78 1.8 W 13 17 7 9 1007.0 1007.0 6.0
25/05:00am 11.1 7.3 7.4 78 1.8 W 17 26 9 14 1006.5 1006.5 6.0
25/04:30am 11.0 7.7 7.9 81 1.5 W 15 20 8 11 1006.0 1006.0 6.0
25/04:00am 10.9 7.6 8.1 83 1.4 W 15 28 8 15 1005.7 1005.7 6.0
25/03:30am 11.0 8.2 8.4 84 1.3 W 13 22 7 12 1005.6 1005.6 6.0
25/03:00am 11.5 8.5 9.1 85 1.2 WSW 15 20 8 11 1005.8 1005.8 6.0
25/02:30am 11.9 8.5 9.3 84 1.3 SW 17 33 9 18 1005.4 1005.4 6.0
25/02:00am 12.3 8.3 10.4 88 1.0 SW 22 37 12 20 1005.1 1005.1 6.0
25/01:30am 12.2 10.0 12.0 99 0.1 SW 15 19 8 10 1005.1 1005.1 6.0
25/01:00am 11.9 10.0 11.7 99 0.1 SSW 13 17 7 9 1004.8 1004.8 6.0
25/12:30am 11.6 12.0 11.4 99 0.1 CALM 0 0 0 0 1004.9 1004.9 6.0
25/12:00am 11.6 11.7 11.4 99 0.1 NW 2 6 1 3 1004.8 1004.8 6.0
 
Date/Time
EST
Temp
°C
App
Temp
°C
Dew
Point
°C
Rel
Hum
%
Delta-T
°C
Wind Press
QNH
hPa
Press
MSL
hPa
Rain since
9am
mm
Dir  Spd
km/h
Gust
km/h
Spd
kts
Gust
kts
24/11:30pm 11.9 10.7 11.7 99 0.1 N 9 13 5 7 1004.7 1004.7 6.0
24/11:00pm 12.2 11.1 12.0 99 0.1 W 9 15 5 8 1005.0 1005.0 6.0
24/10:30pm 12.0 10.9 11.8 99 0.1 WSW 9 13 5 7 1004.9 1004.9 6.0
24/10:00pm 12.0 11.4 11.8 99 0.1 W 6 9 3 5 1004.7 1004.7 6.0
24/09:30pm 12.0 12.6 11.8 99 0.1 CALM 0 7 0 4 1005.1 1005.1 5.0
24/09:00pm 12.1 11.9 11.9 99 0.1 WNW 4 6 2 3 1005.5 1005.5 4.4
24/08:30pm 12.2 11.5 12.0 99 0.1 WSW 7 9 4 5 1005.9 1005.9 3.8
24/08:00pm 12.2 11.1 12.0 99 0.1 WSW 9 11 5 6 1006.0 1006.0 3.6
24/07:30pm 12.1 12.7 11.9 99 0.1 CALM 0 0 0 0 1005.7 1005.7 3.2
24/07:00pm 12.3 13.0 12.1 99 0.1 CALM 0 0 0 0 1005.3 1005.3 3.2
24/06:30pm 12.4 13.1 12.2 99 0.1 CALM 0 0 0 0 1005.3 1005.3 3.2
24/06:00pm 12.6 12.0 12.4 99 0.1 WSW 7 9 4 5 1005.4 1005.4 3.2
24/05:30pm 12.8 12.4 12.5 98 0.2 NNW 6 9 3 5 1005.6 1005.6 3.2
24/05:00pm 13.0 12.5 12.7 98 0.2 NNW 7 9 4 5 1006.0 1006.0 3.0
24/04:30pm 13.0 12.5 12.5 97 0.3 NNW 7 9 4 5 1006.2 1006.2 3.0
24/04:00pm 13.3 12.6 12.0 92 0.7 N 7 9 4 5 1006.5 1006.5 2.6
24/03:30pm 13.8 14.5 12.2 90 0.9 CALM 0 0 0 0 1006.5 1006.5 2.6
24/03:00pm 13.5 12.8 12.1 91 0.8 WNW 7 11 4 6 1007.3 1007.3 2.6
24/02:30pm 13.4 12.7 12.1 92 0.7 WNW 7 9 4 5 1007.1 1007.1 2.6
24/02:00pm 13.3 12.7 12.2 93 0.6 NW 7 9 4 5 1007.7 1007.7 2.6
24/01:30pm 13.3 12.3 12.4 94 0.5 W 9 13 5 7 1007.9 1007.9 2.6
24/01:00pm 13.1 12.1 12.2 94 0.5 W 9 13 5 7 1007.8 1007.8 2.6
24/12:30pm 13.1 11.4 12.3 95 0.4 WSW 13 17 7 9 1008.3 1008.3 2.6
24/12:00pm 12.7 11.3 12.1 96 0.3 WSW 11 15 6 8 1008.7 1008.7 2.6
24/11:30am 12.7 11.6 12.1 96 0.3 WNW 9 13 5 7 1009.6 1009.6 2.6
24/11:00am 12.2 11.5 11.9 98 0.2 SW 7 11 4 6 1008.8 1008.8 2.6
24/10:56am 12.2 11.1 12.0 99 0.1 WSW 9 11 5 6 1009.6 1009.6 2.6
24/10:30am 12.1 10.6 11.9 99 0.1 WSW 11 15 6 8 1011.8 1011.8 2.4
24/10:00am 11.9 11.3 11.7 99 0.1 W 6 9 3 5 1012.0 1012.0 2.2
24/09:30am 11.7 10.5 11.5 99 0.1 W 9 11 5 6 1012.7 1012.7 1.4
24/09:00am 11.5 9.8 11.3 99 0.1 WNW 11 15 6 8 1012.8 1012.8 5.6
24/08:30am 11.5 9.8 11.3 99 0.1 WSW 11 13 6 7 1012.3 1012.3 4.6
24/08:00am 11.4 10.5 11.2 99 0.1 WNW 7 7 4 4 1012.3 1012.3 3.6
24/07:30am 11.4 10.6 11.2 99 0.1 W 6 7 3 4 1012.2 1012.2 3.0
24/07:00am 11.3 10.3 11.1 99 0.1 W 7 7 4 4 1012.6 1012.6 2.8
24/06:30am 11.3 10.3 11.1 99 0.1 W 7 11 4 6 1013.1 1013.1 2.4
24/06:00am 11.2 9.8 10.9 98 0.2 W 9 11 5 6 1013.0 1013.0 1.8
24/05:30am 11.2 10.3 10.7 97 0.3 NNW 6 7 3 4 1012.4 1012.4 1.8
24/05:00am 11.2 10.1 10.7 97 0.3 NW 7 9 4 5 1012.3 1012.3 1.6
24/04:30am 11.2 9.3 10.6 96 0.3 WNW 11 13 6 7 1012.6 1012.6 1.4
24/04:00am 11.2 9.7 10.4 95 0.4 WNW 9 13 5 7 1012.7 1012.7 1.0
24/03:30am 11.4 10.3 10.5 94 0.5 WNW 7 11 4 6 1012.6 1012.6 0.8
24/03:00am 11.5 10.0 10.6 94 0.5 WNW 9 13 5 7 1013.2 1013.2 0.4
24/02:30am 11.7 9.5 10.8 94 0.5 WSW 13 15 7 8 1013.0 1013.0 0.4
24/02:00am 11.5 10.0 10.6 94 0.5 WSW 9 11 5 6 1013.4 1013.4 0.2
24/01:30am 11.5 10.3 10.2 92 0.7 NW 7 9 4 5 1013.5 1013.5 0.2
24/01:00am 11.7 10.7 10.3 91 0.7 WNW 6 7 3 4 1013.3 1013.3 0.2
24/12:30am 12.2 10.9 9.9 86 1.2 WNW 7 9 4 5 1014.2 1014.2 0.2
24/12:00am 12.4 11.1 9.8 84 1.3 WNW 7 9 4 5 1014.4 1014.4 0.0
 
Date/Time
EST
Temp
°C
App
Temp
°C
Dew
Point
°C
Rel
Hum
%
Delta-T
°C
Wind Press
QNH
hPa
Press
MSL
hPa
Rain since
9am
mm
Dir  Spd
km/h
Gust
km/h
Spd
kts
Gust
kts
23/11:30pm 12.5 11.1 9.7 83 1.4 WSW 7 7 4 4 1014.7 1014.7 0.0
23/11:00pm 12.4 10.6 9.6 83 1.4 WSW 9 11 5 6 1015.1 1015.1 0.0
23/10:30pm 12.9 10.7 9.2 78 1.9 WNW 11 13 6 7 1015.5 1015.5 0.0
23/10:00pm 13.4 11.0 8.7 73 2.4 NW 11 13 6 7 1015.2 1015.2 0.0
23/09:30pm 13.6 11.6 8.7 72 2.5 NW 9 11 5 6 1015.5 1015.5 0.0
23/09:00pm 13.5 11.2 9.0 74 2.3 NW 11 11 6 6 1015.7 1015.7 0.0
23/08:30pm 12.6 11.3 9.1 79 1.8 NNW 6 7 3 4 1015.8 1015.8 0.0
23/08:00pm 13.3 11.7 8.8 74 2.3 NW 7 11 4 6 1015.9 1015.9 0.0
23/07:30pm 14.0 11.9 8.4 69 2.8 NW 9 13 5 7 1015.9 1015.9 0.0
23/07:00pm 14.5 12.9 8.0 65 3.2 WSW 6 9 3 5 1016.0 1016.0 0.0
23/06:30pm 14.7 13.0 8.2 65 3.3 WSW 7 11 4 6 1015.4 1015.4 0.0
23/06:00pm 14.5 12.5 8.5 67 3.0 WSW 9 11 5 6 1015.2 1015.2 0.0
23/05:30pm 14.6 12.6 8.5 67 3.1 SW 9 11 5 6 1014.5 1014.5 0.0
23/05:00pm 14.7 12.0 9.1 69 2.9 S 13 20 7 11 1014.1 1014.1 0.0
23/04:30pm 15.1 11.6 8.8 66 3.2 S 17 26 9 14 1013.1 1013.1 0.0
23/04:00pm 15.4 12.5 9.5 68 3.0 S 15 26 8 14 1013.3 1013.3 0.0
23/03:30pm 15.7 12.5 10.0 69 3.0 SSE 17 24 9 13 1012.9 1012.9 0.0
23/03:00pm 15.9 12.7 9.8 67 3.2 SE 17 26 9 14 1012.5 1012.5 0.0
23/02:30pm 16.8 16.1 11.9 73 2.7 SE 7 11 4 6 1012.1 1012.1 0.0
23/02:00pm 16.6 16.1 12.2 75 2.4 S 6 11 3 6 1012.4 1012.4 0.0
23/01:30pm 16.0 14.9 11.8 76 2.3 SSE 9 11 5 6 1012.8 1012.8 0.0
23/01:00pm 16.2 15.9 12.7 80 1.9 SW 6 9 3 5 1013.0 1013.0 0.0
23/12:30pm 14.7 13.7 12.4 86 1.3 W 9 11 5 6 1013.3 1013.3 0.0
23/12:00pm 14.0 12.5 11.9 87 1.1 NW 11 13 6 7 1013.6 1013.6 0.0
23/11:30am 13.7 12.3 12.3 91 0.8 NW 11 13 6 7 1014.0 1014.0 0.0
23/11:00am 13.2 11.7 11.9 92 0.7 W 11 13 6 7 1014.1 1014.1 0.0
23/10:30am 12.9 11.8 11.8 93 0.6 W 9 13 5 7 1014.2 1014.2 0.0
23/10:00am 12.4 10.5 11.9 97 0.3 W 13 17 7 9 1014.2 1014.2 0.0
23/09:30am 11.9 10.7 11.6 98 0.2 WSW 9 13 5 7 1013.8 1013.8 0.0
23/09:00am 11.4 10.4 11.1 98 0.2 W 7 9 4 5 1013.5 1013.5 4.2
23/08:30am 11.1 10.3 10.9 99 0.1 NNW 6 9 3 5 1013.4 1013.4 4.2
23/08:00am 11.0 9.6 10.8 99 0.1 N 9 13 5 7 1013.2 1013.2 4.2
23/07:30am 10.7 10.9 10.5 99 0.1 CALM 0 0 0 0 1012.8 1012.8 4.2
23/07:00am 10.5 10.3 10.3 99 0.1 NNE 2 7 1 4 1012.6 1012.6 4.2
23/06:49am 10.1 9.8 10.0 99 0.1 E 2 7 1 4 1012.2 1012.2 4.2
23/06:30am 9.7 8.9 9.6 99 0.0 ENE 4 7 2 4 1012.0 1012.0 4.2
23/06:26am 9.6 9.1 9.5 99 0.0 SE 2 7 1 4 1012.0 1012.0 4.2
23/06:00am 10.1 9.8 10.0 99 0.1 SE 2 6 1 3 1011.9 1011.9 4.2
23/05:38am 10.0 10.0 9.9 99 0.1 CALM 0 0 0 0 1011.7 1011.7 4.2
23/05:30am 9.2 9.0 9.1 99 0.0 CALM 0 0 0 0 1011.6 1011.6 4.2
23/05:14am 9.5 9.0 9.4 99 0.0 SE 2 7 1 4 1011.6 1011.6 4.2
23/05:00am 9.6 7.8 9.5 99 0.0 SSE 9 13 5 7 1011.2 1011.2 4.2
23/04:30am 9.1 7.2 9.0 99 0.0 NNW 9 13 5 7 1010.9 1010.9 4.2
23/04:00am 8.9 8.3 8.8 99 0.0 WNW 2 9 1 5 1010.5 1010.5 4.0
23/03:30am 9.7 8.3 9.6 99 0.0 W 7 11 4 6 1010.6 1010.6 4.0
23/03:20am 9.8 9.0 9.7 99 0.1 W 4 9 2 5 1010.3 1010.3 4.0
23/03:00am 10.0 7.9 9.9 99 0.1 W 11 15 6 8 1010.7 1010.7 4.0
23/02:30am 10.1 8.8 10.0 99 0.1 NW 7 11 4 6 1010.7 1010.7 4.0
23/02:00am 10.3 9.0 10.1 99 0.1 N 7 7 4 4 1011.2 1011.2 4.0
23/01:31am 10.8 9.9 10.6 99 0.1 WNW 6 7 3 4 1011.4 1011.4 4.0
23/01:30am 10.9 10.0 10.7 99 0.1 WNW 6 7 3 4 1011.4 1011.4 4.0
23/01:18am 11.2 11.5 11.0 99 0.1 CALM 0 6 0 3 1011.5 1011.5 4.0
23/01:00am 11.1 11.4 10.9 99 0.1 CALM 0 0 0 0 1011.5 1011.5 4.0
23/12:40am 11.1 11.4 10.9 99 0.1 CALM 0 0 0 0 1011.9 1011.9 4.0
23/12:30am 11.4 10.6 11.2 99 0.1 WNW 6 7 3 4 1011.8 1011.8 4.0
23/12:00am 11.4 11.8 11.2 99 0.1 CALM 0 0 0 0 1011.8 1011.8 4.0
 
Date/Time
EST
Temp
°C
App
Temp
°C
Dew
Point
°C
Rel
Hum
%
Delta-T
°C
Wind Press
QNH
hPa
Press
MSL
hPa
Rain since
9am
mm
Dir  Spd
km/h
Gust
km/h
Spd
kts
Gust
kts
22/11:30pm 11.1 11.4 10.9 99 0.1 CALM 0 0 0 0 1012.2 1012.2 4.0
22/11:00pm 11.2 11.2 11.0 99 0.1 WSW 2 7 1 4 1012.4 1012.4 4.0
22/10:30pm 11.1 9.7 10.9 99 0.1 WSW 9 13 5 7 1012.5 1012.5 4.0
22/10:22pm 11.1 9.7 10.9 99 0.1 SW 9 11 5 6 1012.5 1012.5 4.0
22/10:00pm 11.1 11.0 10.8 98 0.2 WSW 2 7 1 4 1012.5 1012.5 3.8
22/09:50pm 11.1 11.4 10.8 98 0.2 CALM 0 0 0 0 1012.6 1012.6 3.8
22/09:48pm 11.1 11.4 10.8 98 0.2 CALM 0 0 0 0 1012.6 1012.6 3.8
22/09:30pm 11.2 11.4 10.7 97 0.3 CALM 0 0 0 0 1013.2 1013.2 3.8
22/09:08pm 11.2 11.4 10.7 97 0.3 CALM 0 0 0 0 1013.4 1013.4 3.8
22/09:00pm 11.1 11.3 10.5 96 0.3 CALM 0 0 0 0 1013.5 1013.5 3.8
22/08:57pm 11.1 11.3 10.5 96 0.3 CALM 0 0 0 0 1013.6 1013.6 3.6
22/08:30pm 11.3 11.2 10.8 97 0.3 WSW 2 7 1 4 1013.9 1013.9 3.2
22/08:24pm 11.4 11.7 10.8 96 0.3 CALM 0 0 0 0 1014.0 1014.0 3.0
22/08:00pm 11.3 10.2 10.7 96 0.3 WSW 7 13 4 7 1014.4 1014.4 2.2
22/07:30pm 11.1 9.5 10.3 95 0.4 NE 9 11 5 6 1013.9 1013.9 1.4
22/07:00pm 11.3 10.1 10.2 93 0.6 NW 7 9 4 5 1014.0 1014.0 1.2
22/06:30pm 11.5 8.7 9.9 90 0.8 WNW 15 17 8 9 1014.5 1014.5 1.0
22/06:00pm 12.0 10.3 9.7 86 1.2 WNW 9 13 5 7 1014.2 1014.2 0.4
22/05:30pm 12.9 10.7 9.5 80 1.7 WSW 11 15 6 8 1014.0 1014.0 0.2
22/05:00pm 14.5 11.6 8.0 65 3.2 WSW 13 19 7 10 1014.0 1014.0 0.0
22/04:30pm 15.6 12.8 7.1 57 4.2 SW 11 13 6 7 1014.0 1014.0 0.0
22/04:00pm 16.4 13.9 8.4 59 4.1 WSW 11 15 6 8 1013.8 1013.8 0.0
22/03:30pm 16.9 13.9 7.8 55 4.6 WSW 13 15 7 8 1013.7 1013.7 0.0
22/03:00pm 17.2 15.1 8.1 55 4.6 WSW 9 11 5 6 1013.4 1013.4 0.0
22/02:30pm 17.8 16.0 8.1 53 5.0 SW 7 9 4 5 1013.1 1013.1 0.0
22/02:00pm 17.8 15.7 8.1 53 5.0 SW 9 13 5 7 1013.6 1013.6 0.0
22/01:30pm 17.8 15.3 8.1 53 5.0 WSW 11 15 6 8 1014.1 1014.1 0.0
22/01:00pm 17.2 15.4 8.1 55 4.6 SSW 7 9 4 5 1014.2 1014.2 0.0
22/12:30pm 16.9 14.6 7.5 54 4.7 SW 9 11 5 6 1014.7 1014.7 0.0
22/12:00pm 16.1 13.7 7.1 55 4.4 SSW 9 13 5 7 1015.2 1015.2 0.0
22/11:30am 15.7 13.3 7.2 57 4.2 SSW 9 11 5 6 1016.0 1016.0 0.0
22/11:00am 14.8 12.4 7.1 60 3.8 WSW 9 11 5 6 1016.1 1016.1 0.0
22/10:30am 13.7 12.5 6.3 61 3.5 SSE 2 7 1 4 1016.2 1016.2 0.0
22/10:00am 13.0 11.3 6.1 63 3.3 W 4 7 2 4 1016.9 1016.9 0.0
22/09:30am 11.7 9.6 5.8 67 2.7 WSW 6 9 3 5 1017.1 1017.1 0.0
22/09:00am 10.4 9.1 5.8 73 2.1 W 2 7 1 4 1017.4 1017.4 0.0
22/08:30am 8.3 5.8 4.7 78 1.6 W 7 9 4 5 1017.5 1017.5 0.0
22/08:00am 6.6 4.1 3.8 82 1.2 WNW 6 11 3 6 1017.6 1017.6 0.0
22/07:30am 4.4 3.0 3.8 96 0.2 CALM 0 0 0 0 1017.8 1017.8 0.0
22/07:00am 3.1 1.1 2.1 93 0.4 WNW 2 6 1 3 1017.5 1017.5 0.0
22/06:30am 3.5 0.7 3.1 97 0.2 WNW 7 9 4 5 1017.4 1017.4 0.0
22/06:00am 2.9 -0.4 2.6 98 0.1 W 9 11 5 6 1017.2 1017.2 0.0

Other Formats:

Comma delimited format used in spreadsheet applications
http://www.bom.gov.au/fwo/IDN60801/IDN60801.95784.axf

JavaScript Object Notation format (JSON) in row-major order
http://www.bom.gov.au/fwo/IDN60801/IDN60801.95784.json